ENTCENSB

Guest
Details From ENTC - Tromso Langnes
To ENSB - Svalbard Longyear
Flight Number -
Tags Generated
Created
Modified
Stats Distance 518 nm / 960 km
Max Altitude 0 ft / 0 m
Waypoints 3
Social Downloads 7
Likes 0
Share VATSIM

Download

Looking for another format? Having issues loading an existing format? Contact us
Advertisement - Login to hide

Notes

Generated

Route

ENTC LON ENSB

ID Type Via Altitude Latitude Longitude Leg Dist Tot Dist Heading (true) Name
O ENTC APT - 0 ft / 0 m 69.67250˚ 18.91291˚ - 0 nm - -
LON NDB - 0 ft / 0 m 78.24973˚ 15.40121˚ 518 nm 518 nm 355° / 352° LONGYEAR NDB
O ENSB APT - 0 ft / 0 m 78.24879˚ 15.41805˚ 0 nm 518 nm 105° / 105° -

Altitude Profile

Advertisement - Login to hide

Weather


0- 5 10 15 20 25 30 35+ Temperature / ° C

Clouds and Precipitation
Forecast for 2017-12-17 06:00 UTC. Updated an hour ago

Ground ~20,000 ft ~40,000 ft Winds

ENTC

Details ICAO ENTC (TOS)
Name Tromso Langnes
Region Norway
Timezone Europe/Oslo (UTC+1.0)
Stats Elevation 31 ft / 9 m (AMSL)
Location 69.682866° 18.919363°
Runways 1
Magnetic Variation 8.800° E

METAR

ENTC 170550Z 19015KT 9999 VCSH FEW002 SCT011 BKN016 M02/M04 Q0997 RMK WIND 2600FT 22007KT

Decode

TAF

TAF ENTC 170500Z 1706/1806 23012KT 9999 FEW015 BKN030 TEMPO 1706/1806 0800 SHSN VV006

Decode

Departure Runways

ID Width Length Bearing (true) Bearing (mag) Surface Threshold Offset Overrun Length
01 141 ft / 43 m 7,740 ft / 2,359 m 12.19° 3.39° Asphalt 0 ft / 0 m 289 ft / 88 m
19 141 ft / 43 m 7,740 ft / 2,359 m 192.21° 183.41° Asphalt 1,227 ft / 374 m 482 ft / 147 m

ENSB

Details ICAO ENSB (LYR)
Name Svalbard Longyear
Region Norway
Timezone Arctic/Longyearbyen (UTC+1.0)
Stats Elevation 88 ft / 27 m (AMSL)
Location 78.246037° 15.467196°
Runways 1
Magnetic Variation 8.855° E

METAR

ENSB 170550Z VRB03KT 9999 -SN FEW012 SCT020 BKN050 M06/M07 Q0997 RMK WIND 1400FT 04004KT

Decode

TAF

TAF ENSB 170500Z 1706/1806 12008KT 9999 FEW010 BKN025 TEMPO 1706/1712 BKN012

Decode

Destination Runways

ID Width Length Bearing (true) Bearing (mag) Surface Threshold Offset Overrun Length
10 148 ft / 45 m 7,578 ft / 2,310 m 105.32° 96.47° Asphalt 199 ft / 61 m 0 ft / 0 m
28 148 ft / 45 m 7,578 ft / 2,310 m 285.42° 276.57° Asphalt 395 ft / 120 m 0 ft / 0 m

Approach Navaids

Runway Type Ident Frequency Range Bearing (true) Bearing (mag) Slope Elevation
10 Localiser LB 110.30 MHz 18 nm / 33 km 105.42° 96.57° - 111 ft / 34 m (AMSL)
10 Glidescope LB 110.30 MHz 10 nm / 19 km 105.37° 96.51° 3.00° 88 ft / 27 m (AMSL)
28 Localiser LA 109.50 MHz 18 nm / 33 km 302.89° 294.04° - 153 ft / 47 m (AMSL)

Popular Alternatives